Terminal Aerodrome Forecast
Issued by NWS

Home | Current Version | Previous Version | Text Only | Print | Product List | Glossary On
Versions: 1 2 3 4 5 6 7 8 9 10 11 12 13 14 15
000
FTUS43 KICT 131700 AAA
TAFCNU
TAF AMD
KCNU 131707Z 1317/1412 18022G29KT P6SM VCTS SCT040CB BKN100
      TEMPO 1317/1318 -TSRA BKN040CB
     FM140200 29015KT P6SM SCT025 BKN035=

USA.gov is the U.S. government's official web portal to all federal, state and local government web resources and services.